Terminal Aerodrome Forecast
Issued by NWS

Home | Current Version | Previous Version | Text Only | Print | Product List | Glossary On
Versions: 1 2 3 4 5 6 7 8 9 10 11 12 13 14 15 16 17 18 19
771
FTUS43 KLSX 212327
TAFSUS
TAF
KSUS 212327Z 2200/2224 08008KT P6SM BKN130
     FM220900 08005KT 6SM -SHRA OVC070
     FM221300 07010G20KT P6SM OVC050
     FM222200 07015G21KT 6SM -SHRA SCT025 OVC040=

USA.gov is the U.S. government's official web portal to all federal, state and local government web resources and services.